E.r.bristol — A8XQ6 — position and weather

sailwx.info

Track history (hours):
 
Tides and Currents Weather Stations Pressure Air Temp Water Temp Dewpoint Dewpoint Depression Visibility Wind Speed Wind Dir Waves Ship Positions

E.r.bristol

Last reported at 2014-Jul-20 04:18 UTC. Time now 2014-Jul-30 13:10 UTC.
Position N 50°20' W 001°02'.
Warning: this ship's position is 10 days out of date.

Length 188 m; draft 7.3 m.

Type: Cargo ship. MMSI: 636092151.

Date/timePositionNaut miles runAvg speedWind from/ knotsBaromVisibWave heightAir tempDewpointWater temp
2014-Jul-20 04:18N 50°20' W 001°02'7 9.6
2014-Jul-20 03:33N 50°22' W 000°51'9 8.7
2014-Jul-20 02:33N 50°25' W 000°38'9 8.8
2014-Jul-20 01:33N 50°27' W 000°25'10 9.6
2014-Jul-20 00:28N 50°29' W 000°09'1010.8
2014-Jul-19 23:33N 50°32' E 000°06'1211.7
2014-Jul-19 22:33N 50°35' E 000°24'1211.8
2014-Jul-19 21:33N 50°40' E 000°41'1511.4
2014-Jul-19 20:14N 50°49' E 000°60'710.8
2014-Jul-19 19:33N 50°54' E 001°09'10 9.6
2014-Jul-19 18:33N 51°00' E 001°20'9 8.9
2014-Jul-19 17:33N 51°06' E 001°31'9 9.0
2014-Jul-19 16:33N 51°12' E 001°42'1010.4
2014-Jul-19 15:33N 51°20' E 001°53'10 9.5
2014-Jul-19 14:33N 51°23' E 002°08'1211.5
2014-Jul-19 13:33N 51°22' E 002°26'1212.1
2014-Jul-19 12:33N 51°24' E 002°45'1212.4
2014-Jul-19 11:34N 51°24' E 003°05'1413.5
2014-Jul-19 10:33N 51°25' E 003°27'1010.0
2014-Jul-19 09:34N 51°24' E 003°43'6 6.2
2014-Jul-19 08:34N 51°20' E 003°49'3 2.8
2014-Jul-19 07:33N 51°17' E 003°50'6 6.2
2014-Jul-19 06:33N 51°11' E 003°48'1 0.6
2014-Jul-19 05:32N 51°10' E 003°48'0 0.0
2014-Jul-19 04:32N 51°10' E 003°48'0 0.0
2014-Jul-19 03:32N 51°10' E 003°48'0 0.0
2014-Jul-19 02:32N 51°10' E 003°48'0 0.0
2014-Jul-19 01:23N 51°10' E 003°48'0 0.0
2014-Jul-19 00:29N 51°10' E 003°48'0 0.0
2014-Jul-18 23:26N 51°10' E 003°48'0 0.0
2014-Jul-18 22:32N 51°10' E 003°48'0 0.0
2014-Jul-18 21:32N 51°10' E 003°48'0 0.0
2014-Jul-18 20:32N 51°10' E 003°48'0 0.0
2014-Jul-18 19:32N 51°10' E 003°48'0 0.0
2014-Jul-18 18:32N 51°10' E 003°48'0 0.0
2014-Jul-18 17:32N 51°10' E 003°48'0 0.0
2014-Jul-18 16:32N 51°10' E 003°48'0 0.0
2014-Jul-18 15:32N 51°10' E 003°48'0 0.0
2014-Jul-18 14:29N 51°10' E 003°48'0 0.0
2014-Jul-18 13:32N 51°10' E 003°48'0 0.0
2014-Jul-18 12:29N 51°10' E 003°48'0 0.0
2014-Jul-18 11:29N 51°10' E 003°48'0 0.0
2014-Jul-18 10:32N 51°10' E 003°48'0 0.0
2014-Jul-18 09:32N 51°10' E 003°48'0 0.0
2014-Jul-18 08:32N 51°10' E 003°48'0 0.0
2014-Jul-18 07:32N 51°10' E 003°48'0 0.0
2014-Jul-18 06:32N 51°10' E 003°48'0 0.0
2014-Jul-18 05:32N 51°10' E 003°48'0 0.0
2014-Jul-18 04:32N 51°10' E 003°48'0 0.0
2014-Jul-18 03:32N 51°10' E 003°48'0 0.0
2014-Jul-18 02:32N 51°10' E 003°48'0 0.0
2014-Jul-18 01:32N 51°10' E 003°48'0 0.0
2014-Jul-18 00:26N 51°10' E 003°48'0 0.0
2014-Jul-17 23:32N 51°10' E 003°48'0 0.0
2014-Jul-17 22:32N 51°10' E 003°48'0 0.0
2014-Jul-17 21:31N 51°10' E 003°48'0 0.0
2014-Jul-17 20:31N 51°10' E 003°48'0 0.0
2014-Jul-17 19:32N 51°10' E 003°48'0 0.0
2014-Jul-17 18:26N 51°10' E 003°48'0 0.0
2014-Jul-17 17:28N 51°10' E 003°48'0 0.0
2014-Jul-17 16:31N 51°10' E 003°48'0 0.0
2014-Jul-17 15:29N 51°10' E 003°48'0 0.0
2014-Jul-17 14:32N 51°10' E 003°48'0 0.0
2014-Jul-17 13:32N 51°10' E 003°48'0 0.0
2014-Jul-17 12:32N 51°10' E 003°48'0 0.0
2014-Jul-17 11:32N 51°10' E 003°48'0 0.0
2014-Jul-17 10:32N 51°10' E 003°48'0 0.0
2014-Jul-17 09:32N 51°10' E 003°48'0 0.0
2014-Jul-17 08:32N 51°10' E 003°48'0 0.0
2014-Jul-17 07:28N 51°10' E 003°48'1 1.5
2014-Jul-17 06:33N 51°12' E 003°48'4 4.2
2014-Jul-17 05:34N 51°16' E 003°50'4 3.6
2014-Jul-17 04:33N 51°19' E 003°49'1 0.6
2014-Jul-17 03:33N 51°20' E 003°49'7 7.3
2014-Jul-17 02:33N 51°26' E 003°41'8 7.8
2014-Jul-17 01:33N 51°25' E 003°29'9 8.5
2014-Jul-17 00:33N 51°25' E 003°15'9 9.4
2014-Jul-16 23:33N 51°25' E 003°00'8 8.2
2014-Jul-16 22:33N 51°25' E 002°47'6 5.9
2014-Jul-16 21:33N 51°23' E 002°38'2 1.8
2014-Jul-16 20:33N 51°24' E 002°36'0 0.1
2014-Jul-16 19:34N 51°24' E 002°36'0 0.0
2014-Jul-16 18:33N 51°24' E 002°36'0 0.0
2014-Jul-16 17:33N 51°24' E 002°36'0 0.0
2014-Jul-16 16:33N 51°24' E 002°36'0 0.0
2014-Jul-16 15:33N 51°24' E 002°36'0 0.2
2014-Jul-16 14:27N 51°24' E 002°36'6 6.4
2014-Jul-16 13:33N 51°22' E 002°28'10 9.4
2014-Jul-16 12:33N 51°19' E 002°13'10 9.6
2014-Jul-16 11:31N 51°24' E 001°60'1212.0
2014-Jul-16 10:33N 51°33' E 002°10'1212.0
2014-Jul-16 09:33N 51°42' E 002°23'1110.8
2014-Jul-16 08:33N 51°51' E 002°31'13 9.3
2014-Jul-16 07:12N 52°04' E 002°36'6 8.8
2014-Jul-16 06:33N 52°09' E 002°37'8 8.3
2014-Jul-16 05:32N 52°18' E 002°37'11 8.1
2014-Jul-16 04:15N 52°28' E 002°37'6 8.6
2014-Jul-16 03:33N 52°34' E 002°37'9 9.4
2014-Jul-16 02:33N 52°44' E 002°38'1010.5
2014-Jul-16 01:33N 52°54' E 002°38'1111.0
2014-Jul-16 00:33N 53°05' E 002°38'1211.2
2014-Jul-15 23:30N 53°16' E 002°45'  
2014-Jul-12 10:19N 66°43' E 011°11'  
Track history (hours):
 
Tides and Currents Weather Stations Pressure Air Temp Water Temp Dewpoint Dewpoint Depression Visibility Wind Speed Wind Dir Waves Ship Positions

E.r.bristol

Last reported at 2014-Jul-20 04:18 UTC. Time now 2014-Jul-30 13:10 UTC.
Position N 50°20' W 001°02'.
Warning: this ship's position is 10 days out of date.

Length 188 m; draft 7.3 m.

Type: Cargo ship. MMSI: 636092151.

Date/timePositionNaut miles runAvg speedWind from/ knotsBaromVisibWave heightAir tempDewpointWater temp
2014-Jul-20 04:18N 50°20' W 001°02'7 9.6
2014-Jul-20 03:33N 50°22' W 000°51'9 8.7
2014-Jul-20 02:33N 50°25' W 000°38'9 8.8
2014-Jul-20 01:33N 50°27' W 000°25'10 9.6
2014-Jul-20 00:28N 50°29' W 000°09'1010.8
2014-Jul-19 23:33N 50°32' E 000°06'1211.7
2014-Jul-19 22:33N 50°35' E 000°24'1211.8
2014-Jul-19 21:33N 50°40' E 000°41'1511.4
2014-Jul-19 20:14N 50°49' E 000°60'710.8
2014-Jul-19 19:33N 50°54' E 001°09'10 9.6
2014-Jul-19 18:33N 51°00' E 001°20'9 8.9
2014-Jul-19 17:33N 51°06' E 001°31'9 9.0
2014-Jul-19 16:33N 51°12' E 001°42'1010.4
2014-Jul-19 15:33N 51°20' E 001°53'10 9.5
2014-Jul-19 14:33N 51°23' E 002°08'1211.5
2014-Jul-19 13:33N 51°22' E 002°26'1212.1
2014-Jul-19 12:33N 51°24' E 002°45'1212.4
2014-Jul-19 11:34N 51°24' E 003°05'1413.5
2014-Jul-19 10:33N 51°25' E 003°27'1010.0
2014-Jul-19 09:34N 51°24' E 003°43'6 6.2
2014-Jul-19 08:34N 51°20' E 003°49'3 2.8
2014-Jul-19 07:33N 51°17' E 003°50'6 6.2
2014-Jul-19 06:33N 51°11' E 003°48'1 0.6
2014-Jul-19 05:32N 51°10' E 003°48'0 0.0
2014-Jul-19 04:32N 51°10' E 003°48'0 0.0
2014-Jul-19 03:32N 51°10' E 003°48'0 0.0
2014-Jul-19 02:32N 51°10' E 003°48'0 0.0
2014-Jul-19 01:23N 51°10' E 003°48'0 0.0
2014-Jul-19 00:29N 51°10' E 003°48'0 0.0
2014-Jul-18 23:26N 51°10' E 003°48'0 0.0
2014-Jul-18 22:32N 51°10' E 003°48'0 0.0
2014-Jul-18 21:32N 51°10' E 003°48'0 0.0
2014-Jul-18 20:32N 51°10' E 003°48'0 0.0
2014-Jul-18 19:32N 51°10' E 003°48'0 0.0
2014-Jul-18 18:32N 51°10' E 003°48'0 0.0
2014-Jul-18 17:32N 51°10' E 003°48'0 0.0
2014-Jul-18 16:32N 51°10' E 003°48'0 0.0
2014-Jul-18 15:32N 51°10' E 003°48'0 0.0
2014-Jul-18 14:29N 51°10' E 003°48'0 0.0
2014-Jul-18 13:32N 51°10' E 003°48'0 0.0
2014-Jul-18 12:29N 51°10' E 003°48'0 0.0
2014-Jul-18 11:29N 51°10' E 003°48'0 0.0
2014-Jul-18 10:32N 51°10' E 003°48'0 0.0
2014-Jul-18 09:32N 51°10' E 003°48'0 0.0
2014-Jul-18 08:32N 51°10' E 003°48'0 0.0
2014-Jul-18 07:32N 51°10' E 003°48'0 0.0
2014-Jul-18 06:32N 51°10' E 003°48'0 0.0
2014-Jul-18 05:32N 51°10' E 003°48'0 0.0
2014-Jul-18 04:32N 51°10' E 003°48'0 0.0
2014-Jul-18 03:32N 51°10' E 003°48'0 0.0
2014-Jul-18 02:32N 51°10' E 003°48'0 0.0
2014-Jul-18 01:32N 51°10' E 003°48'0 0.0
2014-Jul-18 00:26N 51°10' E 003°48'0 0.0
2014-Jul-17 23:32N 51°10' E 003°48'0 0.0
2014-Jul-17 22:32N 51°10' E 003°48'0 0.0
2014-Jul-17 21:31N 51°10' E 003°48'0 0.0
2014-Jul-17 20:31N 51°10' E 003°48'0 0.0
2014-Jul-17 19:32N 51°10' E 003°48'0 0.0
2014-Jul-17 18:26N 51°10' E 003°48'0 0.0
2014-Jul-17 17:28N 51°10' E 003°48'0 0.0
2014-Jul-17 16:31N 51°10' E 003°48'0 0.0
2014-Jul-17 15:29N 51°10' E 003°48'0 0.0
2014-Jul-17 14:32N 51°10' E 003°48'0 0.0
2014-Jul-17 13:32N 51°10' E 003°48'0 0.0
2014-Jul-17 12:32N 51°10' E 003°48'0 0.0
2014-Jul-17 11:32N 51°10' E 003°48'0 0.0
2014-Jul-17 10:32N 51°10' E 003°48'0 0.0
2014-Jul-17 09:32N 51°10' E 003°48'0 0.0
2014-Jul-17 08:32N 51°10' E 003°48'0 0.0
2014-Jul-17 07:28N 51°10' E 003°48'1 1.5
2014-Jul-17 06:33N 51°12' E 003°48'4 4.2
2014-Jul-17 05:34N 51°16' E 003°50'4 3.6
2014-Jul-17 04:33N 51°19' E 003°49'1 0.6
2014-Jul-17 03:33N 51°20' E 003°49'7 7.3
2014-Jul-17 02:33N 51°26' E 003°41'8 7.8
2014-Jul-17 01:33N 51°25' E 003°29'9 8.5
2014-Jul-17 00:33N 51°25' E 003°15'9 9.4
2014-Jul-16 23:33N 51°25' E 003°00'8 8.2
2014-Jul-16 22:33N 51°25' E 002°47'6 5.9
2014-Jul-16 21:33N 51°23' E 002°38'2 1.8
2014-Jul-16 20:33N 51°24' E 002°36'0 0.1
2014-Jul-16 19:34N 51°24' E 002°36'0 0.0
2014-Jul-16 18:33N 51°24' E 002°36'0 0.0
2014-Jul-16 17:33N 51°24' E 002°36'0 0.0
2014-Jul-16 16:33N 51°24' E 002°36'0 0.0
2014-Jul-16 15:33N 51°24' E 002°36'0 0.2
2014-Jul-16 14:27N 51°24' E 002°36'6 6.4
2014-Jul-16 13:33N 51°22' E 002°28'10 9.4
2014-Jul-16 12:33N 51°19' E 002°13'10 9.6
2014-Jul-16 11:31N 51°24' E 001°60'1212.0
2014-Jul-16 10:33N 51°33' E 002°10'1212.0
2014-Jul-16 09:33N 51°42' E 002°23'1110.8
2014-Jul-16 08:33N 51°51' E 002°31'13 9.3
2014-Jul-16 07:12N 52°04' E 002°36'6 8.8
2014-Jul-16 06:33N 52°09' E 002°37'8 8.3
2014-Jul-16 05:32N 52°18' E 002°37'11 8.1
2014-Jul-16 04:15N 52°28' E 002°37'6 8.6
2014-Jul-16 03:33N 52°34' E 002°37'9 9.4
2014-Jul-16 02:33N 52°44' E 002°38'1010.5
2014-Jul-16 01:33N 52°54' E 002°38'1111.0
2014-Jul-16 00:33N 53°05' E 002°38'1211.2
2014-Jul-15 23:30N 53°16' E 002°45'  
2014-Jul-12 10:19N 66°43' E 011°11'  

Dump ship's entire track history